createdAt,value
2018-10-02T00:00:44.668Z,6.30
2018-10-02T00:03:12.687Z,6.30
2018-10-02T00:05:40.810Z,6.30
2018-10-02T00:08:08.776Z,6.30
2018-10-02T00:10:36.794Z,6.30
2018-10-02T00:13:10.582Z,6.40
2018-10-02T00:15:38.630Z,6.40
2018-10-02T00:18:06.562Z,6.40
2018-10-02T00:20:34.688Z,6.40
2018-10-02T00:23:02.710Z,6.40
2018-10-02T00:25:30.882Z,6.40
2018-10-02T00:27:59.019Z,6.30
2018-10-02T00:30:27.079Z,6.40
2018-10-02T00:32:55.081Z,6.40
2018-10-02T00:35:23.082Z,6.30
2018-10-02T00:37:54.760Z,6.30
2018-10-02T00:40:22.765Z,6.30
2018-10-02T00:42:50.764Z,6.20
2018-10-02T00:45:18.860Z,6.20
2018-10-02T00:47:46.814Z,6.20
2018-10-02T00:50:14.798Z,6.10
2018-10-02T00:52:42.744Z,6.10
2018-10-02T00:55:10.788Z,6.10
2018-10-02T00:57:38.748Z,6.10
2018-10-02T01:00:06.776Z,6.10
2018-10-02T01:02:34.748Z,6.10
2018-10-02T01:05:02.838Z,6.10
2018-10-02T01:07:30.778Z,6.00
2018-10-02T01:09:58.755Z,6.00
2018-10-02T01:12:26.723Z,6.00
2018-10-02T01:14:54.743Z,6.00
2018-10-02T01:17:22.799Z,6.00
2018-10-02T01:19:50.779Z,6.00
2018-10-02T01:22:18.757Z,6.00
2018-10-02T01:24:46.809Z,5.90
2018-10-02T01:27:14.799Z,5.90
2018-10-02T01:29:42.758Z,5.90
2018-10-02T01:32:10.824Z,5.90
2018-10-02T01:34:38.768Z,5.80
2018-10-02T01:37:06.760Z,5.80
2018-10-02T01:39:34.824Z,5.80
2018-10-02T01:42:02.771Z,5.80
2018-10-02T01:44:30.920Z,5.80
2018-10-02T01:46:58.939Z,5.80
2018-10-02T01:49:26.832Z,5.80
2018-10-02T01:51:54.794Z,5.80
2018-10-02T01:54:22.746Z,5.80
2018-10-02T01:56:50.840Z,5.80
2018-10-02T01:59:18.820Z,5.80
2018-10-02T02:01:46.927Z,5.70
2018-10-02T02:04:15.050Z,5.70
2018-10-02T02:06:43.007Z,5.70
2018-10-02T02:09:11.035Z,5.70
2018-10-02T02:11:39.019Z,5.70
2018-10-02T02:14:07.086Z,5.70
2018-10-02T02:16:35.059Z,5.70
2018-10-02T02:19:03.178Z,5.60
2018-10-02T02:21:31.085Z,5.70
2018-10-02T02:23:59.044Z,5.60
2018-10-02T02:26:27.025Z,5.70
2018-10-02T02:28:55.101Z,5.60
2018-10-02T02:31:23.075Z,5.60
2018-10-02T02:33:51.063Z,5.70
2018-10-02T02:36:19.065Z,5.70
2018-10-02T02:38:47.082Z,5.70
2018-10-02T02:41:15.059Z,5.70
2018-10-02T02:43:43.026Z,5.70
2018-10-02T02:46:11.076Z,5.70
2018-10-02T02:48:44.636Z,5.70
2018-10-02T02:51:20.101Z,5.70
2018-10-02T02:53:48.336Z,5.70
2018-10-02T02:56:16.293Z,5.70
2018-10-02T02:58:44.331Z,5.70
2018-10-02T03:01:12.262Z,5.70
2018-10-02T03:03:40.220Z,5.60
2018-10-02T03:06:08.231Z,5.70
2018-10-02T03:08:36.407Z,5.60
2018-10-02T03:11:04.391Z,5.60
2018-10-02T03:13:32.361Z,5.60
2018-10-02T03:16:00.349Z,5.60
2018-10-02T03:18:28.423Z,5.60
2018-10-02T03:20:56.375Z,5.60
2018-10-02T03:23:24.309Z,5.60
2018-10-02T03:25:52.274Z,5.50
2018-10-02T03:28:20.237Z,5.50
2018-10-02T03:30:48.180Z,5.50
2018-10-02T03:33:16.215Z,5.50
2018-10-02T03:35:44.116Z,5.50
2018-10-02T03:38:12.049Z,5.50
2018-10-02T03:40:40.146Z,5.50
2018-10-02T03:43:08.530Z,5.50
2018-10-02T03:45:36.590Z,5.50
2018-10-02T03:48:04.662Z,5.50
2018-10-02T03:50:32.696Z,5.50
2018-10-02T03:53:00.674Z,5.50
2018-10-02T03:55:28.659Z,5.50
2018-10-02T03:57:56.691Z,5.50
2018-10-02T04:00:24.655Z,5.50
2018-10-02T04:02:52.670Z,5.50
2018-10-02T04:05:20.679Z,5.50
2018-10-02T04:07:48.725Z,5.50
2018-10-02T04:10:16.699Z,5.50
2018-10-02T04:12:44.671Z,5.50
2018-10-02T04:15:12.611Z,5.50
2018-10-02T04:17:40.646Z,5.50
2018-10-02T04:20:08.648Z,5.50
2018-10-02T04:22:36.591Z,5.50
2018-10-02T04:25:04.659Z,5.50
2018-10-02T04:27:32.636Z,5.50
2018-10-02T04:30:00.733Z,5.50
2018-10-02T04:32:28.655Z,5.50
2018-10-02T04:34:56.654Z,5.50
2018-10-02T04:37:24.624Z,5.50
2018-10-02T04:39:52.571Z,5.50
2018-10-02T04:42:20.635Z,5.50
2018-10-02T04:44:48.622Z,5.50
2018-10-02T04:47:16.552Z,5.50
2018-10-02T04:49:44.514Z,5.50
2018-10-02T04:52:12.541Z,5.50
2018-10-02T04:54:40.492Z,5.50
2018-10-02T04:57:08.502Z,5.50
2018-10-02T04:59:36.455Z,5.50
2018-10-02T05:02:04.519Z,5.50
2018-10-02T05:04:32.497Z,5.50
2018-10-02T05:07:00.511Z,5.50
2018-10-02T05:09:28.513Z,5.50
2018-10-02T05:11:56.589Z,5.50
2018-10-02T05:14:24.572Z,5.50
2018-10-02T05:16:52.543Z,5.60
2018-10-02T05:19:20.491Z,5.60
2018-10-02T05:21:48.553Z,5.50
2018-10-02T05:24:16.512Z,5.50
2018-10-02T05:26:44.552Z,5.50
2018-10-02T05:29:12.570Z,5.50
2018-10-02T05:31:40.704Z,5.50
2018-10-02T05:34:08.692Z,5.50
2018-10-02T05:36:36.873Z,5.50
2018-10-02T05:39:06.861Z,5.50
2018-10-02T05:41:34.870Z,5.50
2018-10-02T05:44:02.840Z,5.50
2018-10-02T05:46:30.842Z,5.60
2018-10-02T05:48:58.863Z,5.60
2018-10-02T05:51:26.847Z,5.60
2018-10-02T05:53:54.973Z,5.60
2018-10-02T05:56:22.953Z,5.60
2018-10-02T05:58:50.981Z,5.60
2018-10-02T06:01:19.005Z,5.50
2018-10-02T06:03:47.030Z,5.50
2018-10-02T06:06:15.031Z,5.50
2018-10-02T06:08:43.088Z,5.50
2018-10-02T06:11:11.027Z,5.50
2018-10-02T06:13:39.052Z,5.50
2018-10-02T06:16:07.032Z,5.50
2018-10-02T06:18:35.109Z,5.60
2018-10-02T06:21:03.064Z,5.60
2018-10-02T06:23:31.114Z,5.60
2018-10-02T06:25:59.138Z,5.60
2018-10-02T06:28:27.174Z,5.70
2018-10-02T06:30:55.138Z,5.70
2018-10-02T06:33:23.120Z,5.70
2018-10-02T06:35:51.172Z,5.70
2018-10-02T06:38:19.229Z,5.80
2018-10-02T06:40:47.271Z,5.80
2018-10-02T06:43:15.256Z,5.80
2018-10-02T06:45:43.257Z,5.80
2018-10-02T06:48:11.214Z,5.80
2018-10-02T06:50:39.257Z,5.80
2018-10-02T06:53:07.186Z,5.80
2018-10-02T06:55:35.215Z,5.80
2018-10-02T06:58:03.185Z,5.80
2018-10-02T07:00:31.229Z,5.90
2018-10-02T07:02:59.243Z,5.90
2018-10-02T07:05:27.319Z,6.00
2018-10-02T07:07:55.386Z,6.00
2018-10-02T07:10:23.397Z,6.10
2018-10-02T07:12:51.350Z,6.20
2018-10-02T07:15:19.306Z,6.30
2018-10-02T07:17:47.300Z,6.30
2018-10-02T07:20:15.312Z,6.30
2018-10-02T07:22:43.282Z,6.30
2018-10-02T07:25:11.306Z,6.50
2018-10-02T07:27:39.336Z,6.80
2018-10-02T07:30:07.246Z,7.60
2018-10-02T07:32:35.276Z,8.30
2018-10-02T07:35:03.428Z,8.60
2018-10-02T07:37:31.429Z,8.60
2018-10-02T07:39:59.442Z,8.50
2018-10-02T07:42:27.508Z,8.30
2018-10-02T07:44:55.475Z,8.20
2018-10-02T07:47:23.454Z,8.20
2018-10-02T07:49:51.482Z,8.70
2018-10-02T07:52:19.481Z,9.60
2018-10-02T07:54:47.465Z,10.30
2018-10-02T07:57:15.415Z,10.60
2018-10-02T07:59:43.524Z,11.00
2018-10-02T08:02:11.418Z,12.60
2018-10-02T08:04:39.434Z,13.30
2018-10-02T08:07:07.445Z,14.00
2018-10-02T08:09:35.458Z,15.80
2018-10-02T08:12:03.571Z,18.10
2018-10-02T08:14:31.532Z,19.10
2018-10-02T08:16:59.450Z,21.00
2018-10-02T08:19:27.403Z,21.30
2018-10-02T08:21:55.427Z,21.20
2018-10-02T08:24:23.400Z,19.90
2018-10-02T08:26:51.476Z,18.40
2018-10-02T08:29:19.478Z,17.40
2018-10-02T08:31:47.502Z,16.20
2018-10-02T08:34:15.489Z,16.40
2018-10-02T08:36:43.434Z,16.00
2018-10-02T08:39:11.760Z,16.50
2018-10-02T08:41:40.055Z,15.90
2018-10-02T08:44:08.110Z,15.30
2018-10-02T08:46:36.094Z,16.30
2018-10-02T08:49:04.106Z,17.50
2018-10-02T08:51:32.065Z,17.90
2018-10-02T08:54:02.155Z,17.70
2018-10-02T08:56:30.067Z,16.40
2018-10-02T08:58:58.077Z,15.50
2018-10-02T09:01:26.079Z,14.70
2018-10-02T09:03:54.946Z,13.90
2018-10-02T09:06:22.964Z,13.40
2018-10-02T09:08:50.942Z,12.90
2018-10-02T09:11:18.997Z,12.60
2018-10-02T09:13:47.083Z,12.30
2018-10-02T09:16:15.092Z,11.90
2018-10-02T09:18:43.135Z,11.40
2018-10-02T09:21:11.115Z,11.00
2018-10-02T09:23:39.094Z,10.70
2018-10-02T09:26:07.073Z,10.30
2018-10-02T09:28:35.072Z,10.00
2018-10-02T09:31:08.677Z,9.80
2018-10-02T09:33:42.147Z,9.70
2018-10-02T09:36:15.643Z,9.80
2018-10-02T09:38:50.061Z,9.80
2018-10-02T09:41:23.618Z,9.90
2018-10-02T09:43:54.281Z,10.00
2018-10-02T09:46:22.989Z,10.10
2018-10-02T09:48:50.976Z,10.10
2018-10-02T09:51:18.924Z,10.10
2018-10-02T09:53:46.940Z,10.20
2018-10-02T09:56:14.939Z,10.10
2018-10-02T09:58:43.011Z,10.00
2018-10-02T10:01:16.441Z,10.00
2018-10-02T10:03:44.462Z,10.10
2018-10-02T10:06:12.417Z,10.10
2018-10-02T10:08:40.412Z,10.10
2018-10-02T10:11:08.421Z,10.10
2018-10-02T10:13:36.449Z,10.10
2018-10-02T10:16:04.484Z,10.30
2018-10-02T10:18:32.531Z,10.50
2018-10-02T10:21:00.744Z,10.90
2018-10-02T10:23:28.745Z,11.20
2018-10-02T10:25:56.744Z,11.30
2018-10-02T10:28:24.718Z,11.30
2018-10-02T10:30:52.677Z,11.30
2018-10-02T10:33:20.737Z,11.20
2018-10-02T10:35:48.698Z,11.30
2018-10-02T10:38:16.661Z,11.30
2018-10-02T10:40:44.762Z,11.30
2018-10-02T10:43:12.705Z,11.20
2018-10-02T10:45:40.680Z,11.10
2018-10-02T10:48:08.686Z,10.90
2018-10-02T10:50:36.653Z,10.80
2018-10-02T10:53:04.736Z,10.80
2018-10-02T10:55:34.095Z,10.90
2018-10-02T10:58:02.104Z,11.00
2018-10-02T11:00:30.643Z,11.00
2018-10-02T11:02:58.644Z,11.00
2018-10-02T11:05:26.631Z,11.10
2018-10-02T11:07:54.675Z,11.10
2018-10-02T11:10:22.677Z,11.00
2018-10-02T11:12:50.641Z,10.80
2018-10-02T11:15:19.672Z,10.50
2018-10-02T11:17:47.649Z,10.40
2018-10-02T11:20:19.357Z,10.20
2018-10-02T11:22:47.313Z,10.00
2018-10-02T11:25:15.307Z,9.80
2018-10-02T11:27:43.303Z,9.60
2018-10-02T11:30:11.287Z,9.50
2018-10-02T11:32:39.267Z,9.40
2018-10-02T11:35:07.351Z,9.40
2018-10-02T11:37:35.372Z,9.30
2018-10-02T11:40:03.359Z,9.30
2018-10-02T11:42:31.416Z,9.20
2018-10-02T11:44:59.623Z,9.10
2018-10-02T11:47:27.535Z,9.00
2018-10-02T11:49:55.657Z,8.90
2018-10-02T11:52:23.612Z,8.70
2018-10-02T11:54:51.628Z,8.60
2018-10-02T11:57:19.662Z,8.60
2018-10-02T11:59:47.660Z,8.60
2018-10-02T12:02:15.676Z,8.70
2018-10-02T12:04:43.700Z,8.80
2018-10-02T12:07:13.657Z,8.80
2018-10-02T12:09:41.663Z,8.90
2018-10-02T12:12:10.614Z,8.70
2018-10-02T12:14:38.692Z,8.70
2018-10-02T12:17:06.707Z,8.70
2018-10-02T12:19:34.844Z,8.70
2018-10-02T12:22:02.733Z,8.70
2018-10-02T12:24:30.733Z,8.60
2018-10-02T12:26:58.709Z,8.50
2018-10-02T12:29:26.674Z,8.40
2018-10-02T12:31:54.653Z,8.40
2018-10-02T12:34:22.651Z,8.30
2018-10-02T12:36:50.609Z,8.30
2018-10-02T12:39:18.631Z,8.20
2018-10-02T12:41:46.567Z,8.20
2018-10-02T12:44:14.557Z,8.10
2018-10-02T12:46:42.620Z,8.00
2018-10-02T12:49:10.560Z,8.00
2018-10-02T12:51:38.530Z,7.90
2018-10-02T12:54:06.664Z,7.90
2018-10-02T12:56:34.647Z,7.90
2018-10-02T12:59:02.647Z,7.80
2018-10-02T13:01:30.633Z,7.80
2018-10-02T13:03:58.622Z,7.80
2018-10-02T13:06:26.646Z,7.80
2018-10-02T13:08:54.843Z,7.80
2018-10-02T13:11:22.951Z,7.80
2018-10-02T13:13:50.925Z,7.80
2018-10-02T13:16:19.001Z,7.70
2018-10-02T13:18:47.031Z,7.70
2018-10-02T13:21:14.984Z,7.70
2018-10-02T13:23:42.985Z,7.70
2018-10-02T13:26:11.022Z,7.80
2018-10-02T13:28:39.012Z,7.80
2018-10-02T13:31:06.994Z,7.90
2018-10-02T13:33:34.975Z,8.00
2018-10-02T13:36:02.995Z,8.00
2018-10-02T13:38:30.994Z,8.10
2018-10-02T13:40:59.088Z,8.10
2018-10-02T13:43:27.030Z,8.10
2018-10-02T13:45:55.022Z,8.00
2018-10-02T13:48:22.959Z,8.00
2018-10-02T13:50:50.927Z,8.00
2018-10-02T13:53:18.981Z,8.00
2018-10-02T13:55:47.072Z,7.90
2018-10-02T13:58:15.099Z,7.90
2018-10-02T14:00:43.125Z,7.90
2018-10-02T14:03:11.122Z,7.90
2018-10-02T14:05:39.159Z,7.90
2018-10-02T14:08:07.118Z,7.90
2018-10-02T14:10:35.145Z,7.90
2018-10-02T14:13:03.441Z,7.80
2018-10-02T14:15:31.506Z,7.80
2018-10-02T14:17:59.865Z,7.80
2018-10-02T14:20:27.910Z,7.70
2018-10-02T14:22:55.865Z,7.70
2018-10-02T14:25:23.845Z,7.70
2018-10-02T14:27:51.878Z,7.70
2018-10-02T14:30:19.902Z,7.70
2018-10-02T14:32:48.903Z,7.60
2018-10-02T14:35:16.924Z,7.60
2018-10-02T14:37:44.985Z,7.50
2018-10-02T14:40:13.091Z,7.50
2018-10-02T14:42:41.199Z,7.40
2018-10-02T14:45:09.243Z,7.40
2018-10-02T14:47:37.262Z,7.40
2018-10-02T14:50:05.274Z,7.40
2018-10-02T14:52:33.265Z,7.40
2018-10-02T14:55:01.568Z,7.40
2018-10-02T14:57:29.565Z,7.30
2018-10-02T14:59:57.585Z,7.30
2018-10-02T15:02:25.535Z,7.30
2018-10-02T15:04:53.611Z,7.30
2018-10-02T15:07:21.583Z,7.20
2018-10-02T15:09:49.585Z,7.20
2018-10-02T15:12:17.559Z,7.10
2018-10-02T15:14:45.625Z,7.10
2018-10-02T15:17:13.611Z,7.00
2018-10-02T15:19:41.597Z,7.00
2018-10-02T15:22:09.574Z,6.90
2018-10-02T15:24:37.551Z,6.90
2018-10-02T15:27:05.656Z,6.80
2018-10-02T15:29:33.654Z,6.90
2018-10-02T15:32:01.698Z,6.90
2018-10-02T15:34:29.760Z,6.90
2018-10-02T15:36:58.255Z,6.90
2018-10-02T15:39:26.325Z,6.90
2018-10-02T15:41:54.307Z,6.90
2018-10-02T15:44:22.350Z,6.90
2018-10-02T15:46:50.425Z,6.90
2018-10-02T15:49:18.469Z,7.00
2018-10-02T15:51:46.577Z,7.00
2018-10-02T15:54:14.595Z,7.00
2018-10-02T15:56:42.577Z,7.00
2018-10-02T15:59:10.581Z,7.00
2018-10-02T16:01:38.629Z,7.00
2018-10-02T16:04:06.661Z,7.00
2018-10-02T16:06:34.748Z,7.00
2018-10-02T16:09:03.168Z,7.00
2018-10-02T16:11:31.089Z,7.00
2018-10-02T16:13:59.099Z,7.00
2018-10-02T16:16:27.634Z,7.00
2018-10-02T16:18:55.611Z,7.00
2018-10-02T16:21:23.617Z,7.00
2018-10-02T16:23:51.605Z,7.00
2018-10-02T16:26:19.701Z,7.00
2018-10-02T16:28:47.703Z,7.00
2018-10-02T16:31:15.724Z,7.10
2018-10-02T16:33:43.660Z,7.10
2018-10-02T16:36:11.678Z,7.10
2018-10-02T16:38:39.644Z,7.10
2018-10-02T16:41:07.641Z,7.10
2018-10-02T16:43:35.620Z,7.10
2018-10-02T16:46:03.768Z,7.10
2018-10-02T16:48:31.818Z,7.10
2018-10-02T16:50:59.883Z,7.10
2018-10-02T16:53:27.853Z,7.20
2018-10-02T16:55:55.887Z,7.20
2018-10-02T16:58:23.833Z,7.20
2018-10-02T17:00:51.817Z,7.20
2018-10-02T17:03:19.827Z,7.20
2018-10-02T17:05:47.834Z,7.20
2018-10-02T17:08:15.844Z,7.20
2018-10-02T17:10:43.835Z,7.20
2018-10-02T17:13:11.819Z,7.20
2018-10-02T17:15:39.866Z,7.30
2018-10-02T17:18:07.850Z,7.20
2018-10-02T17:20:35.768Z,7.20
2018-10-02T17:23:03.776Z,7.20
2018-10-02T17:25:31.734Z,7.20
2018-10-02T17:27:59.871Z,7.20
2018-10-02T17:30:27.807Z,7.20
2018-10-02T17:32:55.787Z,7.20
2018-10-02T17:35:23.764Z,7.20
2018-10-02T17:37:51.839Z,7.20
2018-10-02T17:40:20.199Z,7.20
2018-10-02T17:42:48.073Z,7.20
2018-10-02T17:45:16.109Z,7.30
2018-10-02T17:47:44.213Z,7.30
2018-10-02T17:50:12.191Z,7.30
2018-10-02T17:52:40.171Z,7.30
2018-10-02T17:55:08.195Z,7.30
2018-10-02T17:57:37.515Z,7.20
2018-10-02T18:00:05.700Z,7.20
2018-10-02T18:02:33.734Z,7.20
2018-10-02T18:05:01.758Z,7.10
2018-10-02T18:07:29.750Z,7.10
2018-10-02T18:09:57.784Z,7.20
2018-10-02T18:12:25.878Z,7.20
2018-10-02T18:14:53.934Z,7.20
2018-10-02T18:17:21.958Z,7.20
2018-10-02T18:19:50.078Z,7.20
2018-10-02T18:22:18.020Z,7.20
2018-10-02T18:24:46.032Z,7.30
2018-10-02T18:27:14.064Z,7.30
2018-10-02T18:29:43.171Z,7.30
2018-10-02T18:32:11.252Z,7.30
2018-10-02T18:34:39.359Z,7.20
2018-10-02T18:37:07.371Z,7.20
2018-10-02T18:39:42.505Z,7.20
2018-10-02T18:42:10.516Z,7.20
2018-10-02T18:44:38.721Z,7.10
2018-10-02T18:47:06.788Z,7.20
2018-10-02T18:49:34.864Z,7.10
2018-10-02T18:52:11.047Z,7.20
2018-10-02T18:54:39.081Z,7.20
2018-10-02T18:57:07.150Z,7.10
2018-10-02T18:59:52.179Z,7.10
2018-10-02T19:02:20.244Z,7.20
2018-10-02T19:04:48.212Z,7.20
2018-10-02T19:07:19.992Z,7.20
2018-10-02T19:09:47.974Z,7.20
2018-10-02T19:12:18.312Z,7.20
2018-10-02T19:14:46.532Z,7.20
2018-10-02T19:17:14.796Z,7.20
2018-10-02T19:19:49.280Z,7.30
2018-10-02T19:22:17.327Z,7.30
2018-10-02T19:24:45.738Z,7.30
2018-10-02T19:27:13.894Z,7.30
2018-10-02T19:29:45.462Z,7.40
2018-10-02T19:32:15.970Z,7.40
2018-10-02T19:34:44.037Z,7.40
2018-10-02T19:37:20.697Z,7.40
2018-10-02T19:39:48.823Z,7.50
2018-10-02T19:42:16.813Z,7.50
2018-10-02T19:44:44.957Z,7.50
2018-10-02T19:47:18.572Z,7.50
2018-10-02T19:49:46.599Z,7.50
2018-10-02T19:52:15.768Z,7.60
2018-10-02T19:54:44.683Z,7.60
2018-10-02T19:57:14.370Z,7.60
2018-10-02T19:59:43.440Z,7.60
2018-10-02T20:02:11.545Z,7.60
2018-10-02T20:04:44.593Z,7.60
2018-10-02T20:07:12.688Z,7.70
2018-10-02T20:09:40.719Z,7.70
2018-10-02T20:12:08.746Z,7.70
2018-10-02T20:14:37.848Z,7.70
2018-10-02T20:17:06.033Z,7.70
2018-10-02T20:19:34.527Z,7.80
2018-10-02T20:22:02.680Z,7.80
2018-10-02T20:24:30.841Z,7.80
2018-10-02T20:26:58.917Z,7.80
2018-10-02T20:29:27.006Z,7.80
2018-10-02T20:31:55.045Z,7.80
2018-10-02T20:34:23.147Z,7.80
2018-10-02T20:36:53.312Z,7.80
2018-10-02T20:39:21.480Z,7.80
2018-10-02T20:41:49.538Z,7.80
2018-10-02T20:44:17.658Z,7.80
2018-10-02T20:46:45.639Z,7.80
2018-10-02T20:49:13.667Z,7.80
2018-10-02T20:51:41.633Z,7.90
2018-10-02T20:54:09.746Z,7.90
2018-10-02T20:56:37.722Z,7.90
2018-10-02T20:59:05.778Z,7.90
2018-10-02T21:01:34.022Z,7.90
2018-10-02T21:04:02.194Z,7.90
2018-10-02T21:06:30.228Z,7.90
2018-10-02T21:08:58.320Z,7.90
2018-10-02T21:11:26.465Z,7.90
2018-10-02T21:13:54.655Z,8.00
2018-10-02T21:16:22.683Z,8.00
2018-10-02T21:18:50.749Z,7.90
2018-10-02T21:21:18.740Z,8.00
2018-10-02T21:23:46.780Z,8.00
2018-10-02T21:26:14.985Z,8.00
2018-10-02T21:28:43.076Z,8.00
2018-10-02T21:31:11.130Z,8.00
2018-10-02T21:33:39.169Z,8.00
2018-10-02T21:36:07.269Z,8.10
2018-10-02T21:38:35.290Z,8.10
2018-10-02T21:41:03.361Z,8.10
2018-10-02T21:43:31.403Z,8.10
2018-10-02T21:45:59.404Z,8.10
2018-10-02T21:48:27.656Z,8.10
2018-10-02T21:50:55.689Z,8.10
2018-10-02T21:53:23.639Z,8.10
2018-10-02T21:55:51.635Z,8.10
2018-10-02T21:58:19.755Z,8.10
2018-10-02T22:00:47.777Z,8.10
2018-10-02T22:03:15.793Z,8.10
2018-10-02T22:05:43.815Z,8.00
2018-10-02T22:08:11.862Z,8.00
2018-10-02T22:10:39.876Z,8.10
2018-10-02T22:13:07.898Z,8.10
2018-10-02T22:15:35.947Z,8.10
2018-10-02T22:18:03.961Z,8.10
2018-10-02T22:20:31.948Z,8.10
2018-10-02T22:22:59.910Z,8.10
2018-10-02T22:25:28.093Z,8.10
2018-10-02T22:27:56.066Z,8.20
2018-10-02T22:30:24.058Z,8.20
2018-10-02T22:32:52.169Z,8.20
2018-10-02T22:35:20.147Z,8.20
2018-10-02T22:37:48.139Z,8.20
2018-10-02T22:40:16.241Z,8.20
2018-10-02T22:42:44.235Z,8.20
2018-10-02T22:45:12.272Z,8.20
2018-10-02T22:47:40.348Z,8.20
2018-10-02T22:50:08.384Z,8.20
2018-10-02T22:52:36.340Z,8.20
2018-10-02T22:55:04.329Z,8.20
2018-10-02T22:57:32.387Z,8.30
2018-10-02T23:00:00.414Z,8.30
2018-10-02T23:02:28.404Z,8.30
2018-10-02T23:04:56.399Z,8.30
2018-10-02T23:07:24.518Z,8.30
2018-10-02T23:09:52.506Z,8.30
2018-10-02T23:12:20.472Z,8.30
2018-10-02T23:14:48.427Z,8.40
2018-10-02T23:17:16.339Z,8.40
2018-10-02T23:19:44.449Z,8.40
2018-10-02T23:22:12.417Z,8.40
2018-10-02T23:24:40.426Z,8.40
2018-10-02T23:27:08.466Z,8.40
2018-10-02T23:29:36.560Z,8.40
2018-10-02T23:32:04.561Z,8.40
2018-10-02T23:34:32.520Z,8.40
2018-10-02T23:37:00.650Z,8.40
2018-10-02T23:39:28.607Z,8.40
2018-10-02T23:41:56.631Z,8.50
2018-10-02T23:44:24.731Z,8.50
2018-10-02T23:46:52.702Z,8.50
2018-10-02T23:49:20.731Z,8.50
2018-10-02T23:51:48.766Z,8.50
2018-10-02T23:54:16.718Z,8.50
2018-10-02T23:56:44.764Z,8.50
2018-10-02T23:59:12.767Z,8.60
